Time;durP1;ratioP1;P1;durP2;ratioP2;P2;SDS_P1;SDS_P2;PMS_P1;PMS_P2;Temp;Humidity;BMP_temperature;BMP_pressure;BME280_temperature;BME280_humidity;BME280_pressure;Samples;Min_cycle;Max_cycle;Signal;HPM_P1;HPM_P2
2022/11/05 00:27:52;;;;;;;9.87;5.40;;;10.90;3.90;;;;;;5050438;28;20442;-82
2022/11/05 00:30:44;;;;;;;11.37;5.60;;;10.90;4.00;;;;;;5052942;28;20837;-82
2022/11/05 00:33:15;;;;;;;11.87;5.10;;;10.90;3.80;;;;;;5035592;28;20442;-82
2022/11/05 00:35:41;;;;;;;10.83;5.20;;;10.90;3.10;;;;;;5032589;28;20411;-82
2022/11/05 00:41:29;;;;;;;13.77;5.20;;;10.80;4.20;;;;;;5053544;28;20467;-88
2022/11/05 00:54:03;;;;;;;8.27;4.40;;;10.70;8.40;;;;;;5051481;28;20413;-82
2022/11/05 00:56:56;;;;;;;14.43;5.23;;;10.80;7.90;;;;;;5069872;28;20461;-82
2022/11/05 00:59:27;;;;;;;11.57;4.80;;;10.80;6.80;;;;;;5049042;28;20481;-82
2022/11/05 01:01:57;;;;;;;14.50;4.80;;;10.70;7.20;;;;;;5044354;28;20423;-82
2022/11/05 01:04:25;;;;;;;5.73;4.83;;;10.80;6.60;;;;;;5052997;28;20524;-82
2022/11/05 01:06:51;;;;;;;13.90;5.27;;;10.70;6.20;;;;;;5042844;28;20426;-82
2022/11/05 01:10:08;;;;;;;14.73;5.60;;;10.70;6.20;;;;;;5040324;28;20453;-88
2022/11/05 01:12:57;;;;;;;10.20;4.43;;;10.70;7.40;;;;;;5044489;28;20188;-88
2022/11/05 01:16:02;;;;;;;9.90;4.77;;;10.60;7.70;;;;;;5036323;28;20410;-88
2022/11/05 01:22:14;;;;;;;13.27;5.43;;;10.60;6.40;;;;;;5056609;28;20789;-88
2022/11/05 01:24:51;;;;;;;8.93;5.00;;;10.60;5.60;;;;;;5046941;28;20430;-82
2022/11/05 01:27:38;;;;;;;19.83;4.53;;;10.60;7.80;;;;;;5055600;28;20465;-82
2022/11/05 01:30:09;;;;;;;8.33;4.97;;;10.60;8.30;;;;;;5055899;28;20452;-82
2022/11/05 01:32:35;;;;;;;15.10;5.20;;;10.60;9.70;;;;;;5055056;28;20909;-82
2022/11/05 01:35:26;;;;;;;8.33;4.70;;;10.60;9.10;;;;;;5051513;28;20450;-82
2022/11/05 01:41:14;;;;;;;13.00;5.17;;;10.60;9.90;;;;;;5037853;28;20519;-88
2022/11/05 01:44:08;;;;;;;11.73;5.07;;;10.70;7.20;;;;;;5054907;28;20470;-88
2022/11/05 01:50:34;;;;;;;17.57;5.80;;;10.70;5.90;;;;;;5045490;28;20440;-88
2022/11/05 01:53:11;;;;;;;9.20;4.53;;;10.70;6.60;;;;;;5041733;28;20430;-82
2022/11/05 01:56:03;;;;;;;13.60;5.53;;;10.60;8.20;;;;;;5039524;28;20427;-82
2022/11/05 02:05:14;;;;;;;11.70;5.07;;;10.60;7.90;;;;;;5041273;28;20454;-82
2022/11/05 02:07:57;;;;;;;22.67;5.07;;;10.60;8.80;;;;;;5039223;28;20442;-83
2022/11/05 02:10:41;;;;;;;8.23;4.67;;;10.60;7.40;;;;;;5052696;28;20437;-82
2022/11/05 02:13:21;;;;;;;9.10;4.83;;;10.60;8.30;;;;;;5038015;28;20435;-83
2022/11/05 02:16:20;;;;;;;9.77;4.80;;;10.60;12.90;;;;;;5048849;28;20776;-82
2022/11/05 02:19:08;;;;;;;19.27;4.63;;;10.50;9.00;;;;;;5050462;28;20460;-82
2022/11/05 02:22:08;;;;;;;12.33;5.77;;;10.50;10.60;;;;;;5055364;28;20405;-82
2022/11/05 02:25:14;;;;;;;12.27;4.90;;;10.60;9.30;;;;;;5062062;28;20522;-83
2022/11/05 02:28:11;;;;;;;14.57;5.77;;;10.60;7.60;;;;;;5041051;28;20447;-82
2022/11/05 02:31:04;;;;;;;12.43;6.10;;;10.60;8.60;;;;;;5035423;28;20407;-82
2022/11/05 02:37:14;;;;;;;11.50;5.50;;;10.50;8.70;;;;;;5053106;28;20460;-82
2022/11/05 02:40:08;;;;;;;19.00;5.17;;;10.50;8.50;;;;;;5049415;28;20430;-82
2022/11/05 02:42:51;;;;;;;15.50;4.90;;;10.50;8.60;;;;;;5057240;28;20503;-82
2022/11/05 02:45:43;;;;;;;10.17;4.30;;;10.50;8.20;;;;;;5055100;28;20399;-82
2022/11/05 02:48:22;;;;;;;15.53;4.70;;;10.50;8.80;;;;;;5053999;28;20434;-82
2022/11/05 02:51:24;;;;;;;16.03;5.00;;;10.50;7.90;;;;;;5033748;28;20415;-82
2022/11/05 02:54:30;;;;;;;15.47;4.90;;;10.50;7.90;;;;;;5046105;28;20479;-88
2022/11/05 02:57:21;;;;;;;12.90;5.40;;;10.40;8.90;;;;;;4958597;28;20425;-88
2022/11/05 03:00:34;;;;;;;14.73;5.50;;;10.50;10.80;;;;;;4977703;28;20437;-88
2022/11/05 03:10:20;;;;;;;18.20;4.67;;;10.50;10.80;;;;;;4916606;29;20847;-82
2022/11/05 03:13:32;;;;;;;11.77;4.87;;;10.50;10.90;;;;;;4915990;29;20472;-82
2022/11/05 03:16:19;;;;;;;12.00;5.73;;;10.50;10.70;;;;;;4910033;29;20415;-82
2022/11/05 03:19:15;;;;;;;10.00;5.33;;;10.60;7.90;;;;;;4921813;29;20490;-82
2022/11/05 03:21:48;;;;;;;14.03;5.90;;;10.50;10.80;;;;;;4922487;29;20852;-82
2022/11/05 03:24:41;;;;;;;13.03;5.70;;;10.50;7.30;;;;;;4915721;29;20459;-83
2022/11/05 03:27:29;;;;;;;27.50;5.50;;;10.50;8.40;;;;;;4917255;29;20516;-82
2022/11/05 03:30:11;;;;;;;11.83;5.73;;;10.50;8.70;;;;;;4916264;29;20539;-82
2022/11/05 03:32:41;;;;;;;14.20;4.80;;;10.50;7.90;;;;;;4964810;28;20437;-82
2022/11/05 03:35:17;;;;;;;17.70;4.83;;;10.50;5.80;;;;;;4992882;28;20527;-82
2022/11/05 03:38:01;;;;;;;18.23;4.97;;;10.50;4.60;;;;;;4991753;28;20472;-82
2022/11/05 03:47:18;;;;;;;17.90;5.17;;;10.30;9.80;;;;;;5042477;28;20752;-89
2022/11/05 03:53:36;;;;;;;16.53;6.00;;;10.30;9.20;;;;;;5039156;28;20527;-87
2022/11/05 03:56:07;;;;;;;10.03;5.70;;;10.30;10.80;;;;;;5045409;28;20426;-88
2022/11/05 03:59:04;;;;;;;10.90;5.47;;;10.30;10.10;;;;;;5043829;28;20983;-89
2022/11/05 04:01:57;;;;;;;12.40;4.83;;;10.30;8.60;;;;;;5042409;28;20418;-88
2022/11/05 04:04:26;;;;;;;23.13;6.07;;;10.30;7.70;;;;;;5053462;28;20402;-89
2022/11/05 04:18:44;;;;;;;18.57;5.37;;;10.20;8.70;;;;;;5046009;28;20540;-82
2022/11/05 04:27:27;;;;;;;20.73;5.77;;;10.10;10.50;;;;;;5060062;28;20464;-89
2022/11/05 04:30:18;;;;;;;20.23;6.57;;;10.10;10.20;;;;;;5059607;28;20418;-89
2022/11/05 04:33:10;;;;;;;13.40;6.10;;;10.00;10.20;;;;;;5047542;28;20426;-89
2022/11/05 04:38:57;;;;;;;11.93;5.60;;;9.90;13.60;;;;;;5049361;28;20464;-85
2022/11/05 04:41:39;;;;;;;16.47;6.00;;;9.90;13.20;;;;;;5051224;28;20801;-83
2022/11/05 04:44:04;;;;;;;14.27;6.80;;;9.80;14.90;;;;;;5050428;28;20175;-86
2022/11/05 04:53:14;;;;;;;18.63;7.63;;;9.80;17.80;;;;;;5057868;28;20433;-89
2022/11/05 04:55:45;;;;;;;16.40;7.77;;;9.80;17.20;;;;;;5039655;28;20890;-89
2022/11/05 04:58:38;;;;;;;16.83;7.00;;;9.80;15.30;;;;;;5048738;28;20681;-88
2022/11/05 05:01:04;;;;;;;13.13;7.30;;;9.70;14.20;;;;;;5060367;28;20440;-89
2022/11/05 05:04:20;;;;;;;13.50;6.43;;;9.60;15.10;;;;;;5060156;28;20433;-89
2022/11/05 05:26:48;;;;;;;21.03;8.97;;;9.20;17.00;;;;;;5040367;28;20498;-88
2022/11/05 05:35:58;;;;;;;22.00;9.50;;;8.90;19.90;;;;;;5050469;28;20963;-88
2022/11/05 05:38:44;;;;;;;25.07;11.70;;;8.80;18.70;;;;;;5039518;28;20496;-89
2022/11/05 05:41:15;;;;;;;26.50;10.60;;;8.70;18.40;;;;;;5037194;28;20411;-88
2022/11/05 05:47:26;;;;;;;26.47;10.90;;;8.60;22.60;;;;;;5047115;28;20542;-88
2022/11/05 05:53:27;;;;;;;38.23;14.10;;;8.60;25.10;;;;;;5043142;28;20798;-88
2022/11/05 05:56:09;;;;;;;34.43;13.53;;;8.60;25.60;;;;;;5054433;28;20521;-82
2022/11/05 05:58:39;;;;;;;30.03;11.67;;;8.60;26.30;;;;;;5046513;28;20462;-82
2022/11/05 06:01:26;;;;;;;37.83;13.27;;;8.70;27.30;;;;;;5057284;28;20439;-82
2022/11/05 06:03:52;;;;;;;31.77;11.50;;;8.60;26.70;;;;;;5049255;28;20492;-82
2022/11/05 06:06:27;;;;;;;34.10;11.83;;;8.50;26.00;;;;;;5054979;28;20546;-82
2022/11/05 06:12:14;;;;;;;39.50;13.93;;;8.50;30.50;;;;;;5050455;28;20429;-88
2022/11/05 06:22:02;;;;;;;31.97;13.37;;;8.60;41.60;;;;;;5051952;28;20429;-84
2022/11/05 06:25:03;;;;;;;47.03;15.23;;;8.60;32.50;;;;;;5046355;28;20430;-90
2022/11/05 06:27:45;;;;;;;36.13;15.07;;;8.70;39.00;;;;;;5052276;28;20543;-85
2022/11/05 06:36:55;;;;;;;30.30;14.13;;;8.90;32.30;;;;;;5044087;28;20903;-89
2022/11/05 06:39:33;;;;;;;32.70;12.60;;;8.90;29.90;;;;;;5049910;28;20443;-86
2022/11/05 06:48:43;;;;;;;47.60;14.07;;;9.00;34.20;;;;;;5049805;28;20406;-91
2022/11/05 06:57:53;;;;;;;33.07;13.47;;;9.10;28.00;;;;;;5047034;28;20581;-91
2022/11/05 07:01:03;;;;;;;40.50;13.83;;;9.10;26.20;;;;;;5042662;28;20441;-91
2022/11/05 07:04:25;;;;;;;33.97;12.93;;;9.10;27.50;;;;;;5052102;28;20183;-91
2022/11/05 07:06:51;;;;;;;32.87;13.80;;;9.10;25.80;;;;;;5050521;28;20460;-90
2022/11/05 07:09:57;;;;;;;34.37;13.63;;;9.10;25.10;;;;;;5068336;28;20445;-91
2022/11/05 07:15:58;;;;;;;33.30;12.87;;;9.00;22.80;;;;;;5044873;28;20410;-84
2022/11/05 07:18:58;;;;;;;31.37;13.77;;;9.00;22.80;;;;;;5050335;28;20461;-83
2022/11/05 07:21:34;;;;;;;27.93;11.93;;;8.90;23.20;;;;;;5046625;28;20781;-84
2022/11/05 07:24:21;;;;;;;39.33;12.60;;;8.90;22.30;;;;;;5054239;28;20414;-84
2022/11/05 07:26:58;;;;;;;24.37;9.87;;;8.80;20.10;;;;;;5053062;28;20445;-90
2022/11/05 07:29:51;;;;;;;28.40;10.47;;;8.80;20.90;;;;;;5048358;28;20460;-89
2022/11/05 07:33:03;;;;;;;30.40;9.93;;;8.80;18.90;;;;;;5041564;28;20430;-90
2022/11/05 07:35:57;;;;;;;31.57;13.43;;;8.80;18.50;;;;;;5033827;28;20890;-90
2022/11/05 07:38:34;;;;;;;25.87;10.67;;;8.80;18.20;;;;;;5047110;28;20545;-90
2022/11/05 07:41:28;;;;;;;31.43;11.93;;;8.80;20.40;;;;;;5041011;28;20448;-83
2022/11/05 07:44:04;;;;;;;39.90;10.40;;;8.80;21.10;;;;;;5040715;28;20463;-84
2022/11/05 07:46:30;;;;;;;23.00;10.37;;;8.80;23.30;;;;;;5038392;28;20436;-83
2022/11/05 07:49:04;;;;;;;29.57;10.30;;;8.80;24.80;;;;;;5045014;28;21083;-83
2022/11/05 07:54:51;;;;;;;29.40;10.03;;;9.00;24.00;;;;;;5051811;28;20409;-83
2022/11/05 07:57:22;;;;;;;26.33;10.10;;;9.00;23.60;;;;;;5040378;28;20427;-83
2022/11/05 08:03:17;;;;;;;35.93;10.80;;;9.10;20.60;;;;;;5042285;28;20380;-84
2022/11/05 08:05:46;;;;;;;22.23;9.17;;;9.10;22.40;;;;;;5045591;28;20439;-82
2022/11/05 08:08:18;;;;;;;25.53;10.50;;;9.20;23.80;;;;;;5041617;28;20422;-83
2022/11/05 08:10:44;;;;;;;24.33;9.33;;;9.20;25.00;;;;;;5038986;28;20433;-83
2022/11/05 08:16:33;;;;;;;32.83;9.40;;;9.20;26.80;;;;;;5043158;28;20971;-89
2022/11/05 08:19:04;;;;;;;23.93;10.20;;;9.20;27.30;;;;;;5042716;28;20548;-90
2022/11/05 08:21:40;;;;;;;23.93;9.20;;;9.30;25.00;;;;;;5043989;28;20225;-91
2022/11/05 08:27:27;;;;;;;24.00;8.97;;;9.30;23.90;;;;;;5048444;28;20548;-90
2022/11/05 08:29:53;;;;;;;28.70;10.30;;;9.30;23.90;;;;;;5046809;28;20840;-91
2022/11/05 08:33:03;;;;;;;23.23;10.03;;;9.30;26.10;;;;;;5043521;28;20425;-91
2022/11/05 08:35:29;;;;;;;25.60;9.63;;;9.40;26.50;;;;;;5035613;28;20180;-91
2022/11/05 08:38:00;;;;;;;23.87;9.77;;;9.50;28.00;;;;;;5046069;28;20468;-91
2022/11/05 08:43:55;;;;;;;36.47;11.60;;;10.00;41.80;;;;;;5044713;28;20470;-91
2022/11/05 08:46:22;;;;;;;26.73;11.10;;;10.30;42.10;;;;;;5044532;28;20422;-91
2022/11/05 08:48:48;;;;;;;39.20;13.83;;;10.50;42.20;;;;;;5045177;28;20426;-88
2022/11/05 08:51:57;;;;;;;32.57;13.10;;;10.90;42.60;;;;;;5046640;28;20461;-89
2022/11/05 08:54:41;;;;;;;29.87;12.20;;;11.10;42.80;;;;;;5036862;28;20483;-88
2022/11/05 09:00:32;;;;;;;31.50;11.90;;;11.50;12.90;;;;;;5046818;28;20962;-87
2022/11/05 09:03:06;;;;;;;31.03;12.23;;;11.70;5.60;;;;;;5046701;28;20429;-89
2022/11/05 09:09:18;;;;;;;26.83;11.90;;;11.90;1.00;;;;;;5051706;28;20429;-88
2022/11/05 09:11:45;;;;;;;24.03;11.23;;;12.10;1.00;;;;;;5053954;28;20472;-89
2022/11/05 09:14:33;;;;;;;24.20;12.20;;;12.20;1.00;;;;;;5039095;28;20446;-84
2022/11/05 09:17:15;;;;;;;18.67;10.70;;;12.40;1.00;;;;;;5047087;28;20419;-80
2022/11/05 09:19:47;;;;;;;27.30;11.30;;;12.40;1.00;;;;;;5049670;28;20999;-76
2022/11/05 09:22:34;;;;;;;27.27;12.03;;;12.40;1.00;;;;;;5050164;28;20469;-78
2022/11/05 09:25:10;;;;;;;21.70;11.57;;;12.40;1.00;;;;;;5048570;28;20478;-78
2022/11/05 09:27:46;;;;;;;24.10;11.17;;;12.50;1.00;;;;;;5043639;28;20448;-77
2022/11/05 09:30:16;;;;;;;21.77;10.30;;;12.50;1.00;;;;;;5043853;28;20899;-78
2022/11/05 09:32:58;;;;;;;21.83;11.10;;;12.40;1.00;;;;;;5047527;28;20410;-82
2022/11/05 09:35:25;;;;;;;26.33;10.80;;;12.50;1.00;;;;;;5036327;28;20396;-83
2022/11/05 09:37:51;;;;;;;20.73;10.77;;;12.60;1.00;;;;;;5035661;28;20470;-83
2022/11/05 09:40:31;;;;;;;26.80;10.43;;;12.70;1.00;;;;;;5053507;28;20427;-89
2022/11/05 09:42:59;;;;;;;17.60;9.33;;;12.80;1.00;;;;;;5051604;28;20207;-80
2022/11/05 09:45:59;;;;;;;13.17;8.70;;;12.90;1.00;;;;;;5056718;28;20461;-76
2022/11/05 09:48:29;;;;;;;18.10;9.40;;;12.90;1.00;;;;;;5044049;28;20418;-76
2022/11/05 09:50:58;;;;;;;24.70;10.97;;;12.80;1.00;;;;;;5056197;28;20434;-76
2022/11/05 09:53:24;;;;;;;22.50;9.40;;;12.80;1.00;;;;;;5054416;28;20758;-75
2022/11/05 09:55:59;;;;;;;18.63;9.80;;;12.80;1.00;;;;;;5049068;28;20745;-75
2022/11/05 09:58:42;;;;;;;18.90;8.67;;;12.60;1.00;;;;;;5045830;28;20457;-75
2022/11/05 10:01:20;;;;;;;23.13;8.83;;;12.60;1.00;;;;;;5036922;28;20477;-75
2022/11/05 10:03:51;;;;;;;16.73;8.57;;;12.60;1.00;;;;;;5049446;28;20413;-76
2022/11/05 10:06:23;;;;;;;18.97;8.87;;;12.50;1.00;;;;;;5047977;28;20431;-75
2022/11/05 10:08:59;;;;;;;17.37;9.47;;;12.50;1.00;;;;;;5042843;28;20929;-75
2022/11/05 10:12:04;;;;;;;19.10;8.70;;;12.40;1.00;;;;;;5045444;28;20392;-76
2022/11/05 10:14:39;;;;;;;21.00;8.60;;;12.50;1.00;;;;;;4972538;28;20512;-76
2022/11/05 10:17:23;;;;;;;17.20;8.70;;;12.50;1.00;;;;;;4974464;28;20452;-76
2022/11/05 10:19:51;;;;;;;18.20;8.23;;;12.50;1.00;;;;;;4973661;28;20536;-76
2022/11/05 10:22:23;;;;;;;17.50;7.60;;;12.50;1.00;;;;;;4973973;28;20536;-76
2022/11/05 10:24:53;;;;;;;14.40;6.57;;;12.50;1.00;;;;;;4974227;28;20448;-76
2022/11/05 10:27:30;;;;;;;12.03;5.50;;;12.30;1.00;;;;;;4955284;29;21030;-76
2022/11/05 10:29:56;;;;;;;18.60;6.30;;;12.10;1.00;;;;;;4974255;28;20585;-75
2022/11/05 10:32:37;;;;;;;10.57;5.30;;;12.10;1.00;;;;;;4974637;28;20504;-75
2022/11/05 10:35:06;;;;;;;11.70;5.60;;;12.30;1.00;;;;;;4974314;28;20421;-76
2022/11/05 10:37:35;;;;;;;8.80;5.87;;;12.40;1.00;;;;;;4973149;28;20851;-76
2022/11/05 10:40:04;;;;;;;10.33;5.77;;;12.50;1.00;;;;;;4972325;28;20441;-75
2022/11/05 10:42:41;;;;;;;11.10;5.30;;;12.60;1.00;;;;;;4974425;28;20430;-75
2022/11/05 10:45:29;;;;;;;9.73;5.30;;;12.50;1.00;;;;;;4974189;28;20437;-75
2022/11/05 10:48:29;;;;;;;17.00;6.00;;;12.60;1.00;;;;;;4963966;28;20450;-76
2022/11/05 10:50:56;;;;;;;12.70;5.40;;;12.60;1.00;;;;;;5002846;28;20434;-76
2022/11/05 10:53:29;;;;;;;17.80;6.13;;;12.60;1.00;;;;;;5048034;28;20418;-76
2022/11/05 10:55:58;;;;;;;11.10;5.50;;;12.70;1.00;;;;;;5042497;28;20413;-75
2022/11/05 10:58:27;;;;;;;12.10;4.80;;;13.00;1.00;;;;;;5054762;28;21005;-75
2022/11/05 11:00:58;;;;;;;10.40;4.70;;;13.00;1.00;;;;;;5041518;28;20879;-75
2022/11/05 11:03:42;;;;;;;10.07;4.80;;;13.30;1.00;;;;;;5054924;28;20409;-77
2022/11/05 11:06:29;;;;;;;6.93;4.90;;;13.30;1.00;;;;;;5049764;28;20528;-77
2022/11/05 11:09:51;;;;;;;27.33;9.00;;;13.50;1.00;;;;;;5048339;28;20429;-85
2022/11/05 11:12:33;;;;;;;7.80;4.00;;;13.80;1.00;;;;;;5050197;28;20453;-78
2022/11/05 11:15:27;;;;;;;11.20;4.70;;;14.00;1.00;;;;;;5053094;28;20764;-78
2022/11/05 11:17:54;;;;;;;9.57;5.37;;;14.00;1.00;;;;;;5042832;28;20461;-78
2022/11/05 11:20:42;;;;;;;17.43;5.20;;;14.10;1.00;;;;;;5041046;28;20770;-78
2022/11/05 11:23:14;;;;;;;6.80;3.40;;;14.20;1.00;;;;;;5049654;28;20918;-77
2022/11/05 11:25:45;;;;;;;13.53;3.20;;;14.20;1.00;;;;;;5040757;28;20426;-77
2022/11/05 11:28:34;;;;;;;82.47;43.63;;;14.10;1.00;;;;;;5054288;28;20434;-77
2022/11/05 11:31:29;;;;;;;13.70;7.30;;;14.10;1.00;;;;;;5051785;28;20475;-78
2022/11/05 11:34:24;;;;;;;8.63;4.67;;;14.00;1.00;;;;;;5052539;28;20430;-76
2022/11/05 11:36:56;;;;;;;23.70;8.10;;;14.00;1.00;;;;;;4992433;28;20425;-76
2022/11/05 11:39:29;;;;;;;8.17;4.53;;;14.10;1.00;;;;;;4992765;28;20495;-77
2022/11/05 11:42:05;;;;;;;29.83;15.57;;;14.10;1.00;;;;;;4992204;28;20464;-76
2022/11/05 11:44:40;;;;;;;13.90;5.47;;;13.90;1.00;;;;;;4993035;28;20416;-76
2022/11/05 11:47:19;;;;;;;8.83;3.77;;;14.00;1.00;;;;;;4992902;28;20491;-76
2022/11/05 11:49:53;;;;;;;7.77;2.47;;;13.90;1.00;;;;;;4991962;28;20417;-75
2022/11/05 11:52:33;;;;;;;10.83;2.50;;;13.60;1.00;;;;;;4996051;28;20419;-74
2022/11/05 11:55:11;;;;;;;9.50;4.40;;;13.40;1.00;;;;;;4992080;28;20413;-75
2022/11/05 11:57:51;;;;;;;2.57;2.30;;;13.50;1.00;;;;;;4992261;28;20441;-75
2022/11/05 12:00:19;;;;;;;3.60;2.57;;;13.40;1.00;;;;;;4991181;28;20774;-75
2022/11/05 12:03:20;;;;;;;122.37;43.23;;;13.40;1.00;;;;;;4976226;28;20545;-77
2022/11/05 12:06:15;;;;;;;139.83;61.23;;;13.70;1.00;;;;;;4991412;28;20522;-77
2022/11/05 12:09:14;;;;;;;30.73;14.90;;;14.10;1.00;;;;;;4992254;28;20428;-77
2022/11/05 12:12:04;;;;;;;8.70;3.17;;;14.10;1.00;;;;;;4992214;28;20421;-77
2022/11/05 12:14:53;;;;;;;12.97;6.90;;;14.20;1.00;;;;;;5036540;28;20453;-77
2022/11/05 12:17:48;;;;;;;9.10;3.70;;;14.40;1.00;;;;;;5042546;28;20400;-76
2022/11/05 12:20:31;;;;;;;6.40;3.33;;;14.50;1.00;;;;;;5052353;28;20426;-77
2022/11/05 12:23:31;;;;;;;12.07;3.37;;;14.50;1.00;;;;;;5039944;28;20931;-77
2022/11/05 12:26:01;;;;;;;10.73;2.63;;;14.50;1.00;;;;;;5045337;28;20396;-77
2022/11/05 12:28:58;;;;;;;12.50;3.73;;;14.50;1.00;;;;;;5053416;28;20490;-77
2022/11/05 12:31:30;;;;;;;7.70;2.10;;;14.50;1.00;;;;;;5032164;28;20473;-77
2022/11/05 12:34:06;;;;;;;5.97;2.60;;;14.30;1.00;;;;;;5044578;28;20714;-77
2022/11/05 12:36:57;;;;;;;4.63;2.80;;;14.30;1.00;;;;;;5053516;28;20451;-77
2022/11/05 12:39:41;;;;;;;18.07;9.00;;;14.10;1.00;;;;;;5049086;28;20435;-77
2022/11/05 12:42:28;;;;;;;6.60;3.40;;;14.20;1.00;;;;;;5039756;28;20454;-77
2022/11/05 12:45:00;;;;;;;7.93;3.50;;;14.20;1.00;;;;;;5044683;28;20380;-78
2022/11/05 12:47:53;;;;;;;13.60;8.40;;;14.20;1.00;;;;;;5057357;28;20412;-78
2022/11/05 12:50:27;;;;;;;7.40;4.50;;;14.20;1.00;;;;;;5056607;28;20445;-75
2022/11/05 12:53:07;;;;;;;6.20;4.03;;;14.30;1.00;;;;;;5052258;28;20453;-75
2022/11/05 12:55:38;;;;;;;5.80;3.00;;;14.30;1.00;;;;;;5057026;28;20414;-74
2022/11/05 12:58:16;;;;;;;8.40;4.47;;;14.30;1.00;;;;;;5048322;28;20465;-75
2022/11/05 13:00:46;;;;;;;6.70;3.07;;;14.20;1.00;;;;;;5050368;28;20421;-75
2022/11/05 13:03:24;;;;;;;10.40;3.17;;;14.30;1.00;;;;;;5074915;28;20444;-75
2022/11/05 13:06:05;;;;;;;6.90;3.50;;;14.40;1.00;;;;;;5039112;28;21005;-75
2022/11/05 13:08:51;;;;;;;10.13;4.50;;;14.20;1.00;;;;;;5056558;28;20467;-75
2022/11/05 13:11:38;;;;;;;3.53;2.47;;;14.10;1.00;;;;;;5043270;28;20419;-75
2022/11/05 13:14:18;;;;;;;127.97;75.77;;;14.00;1.00;;;;;;5056711;28;20388;-75
2022/11/05 13:17:16;;;;;;;41.07;24.50;;;14.20;1.00;;;;;;5037179;28;20901;-76
2022/11/05 13:20:11;;;;;;;11.77;7.90;;;14.40;1.00;;;;;;5033272;28;20495;-75
2022/11/05 13:22:43;;;;;;;6.50;2.70;;;14.40;1.00;;;;;;5034173;28;20430;-79
2022/11/05 13:25:17;;;;;;;2.40;2.13;;;14.20;1.00;;;;;;5027075;28;20474;-75
2022/11/05 13:27:52;;;;;;;6.40;2.73;;;14.30;1.00;;;;;;5015568;28;20878;-76
2022/11/05 13:30:27;;;;;;;4.47;2.50;;;14.40;1.00;;;;;;5034125;28;20485;-75
2022/11/05 13:33:15;;;;;;;72.97;41.83;;;14.40;1.00;;;;;;5030634;28;20929;-82
2022/11/05 13:38:58;;;;;;;14.13;8.10;;;14.40;1.00;;;;;;5034244;28;20394;-83
2022/11/05 13:39:22;;;;;;;9.73;5.53;;;14.60;1.00;;;;;;5021164;28;20455;-83
2022/11/05 13:42:16;;;;;;;6.93;2.90;;;14.40;1.00;;;;;;5026715;28;20453;-82
2022/11/05 13:44:52;;;;;;;6.50;3.30;;;14.50;1.00;;;;;;5008552;28;20430;-83
2022/11/05 13:51:34;;;;;;;8.03;3.27;;;14.50;1.00;;;;;;5020115;28;20788;-84
2022/11/05 13:54:37;;;;;;;6.70;2.67;;;14.40;1.00;;;;;;5032158;28;20455;-82
2022/11/05 13:57:40;;;;;;;4.77;2.33;;;14.20;1.00;;;;;;5050551;28;20441;-82
2022/11/05 14:03:28;;;;;;;6.33;2.10;;;13.90;1.00;;;;;;5055867;28;20390;-84
2022/11/05 14:06:06;;;;;;;6.70;3.43;;;13.70;1.00;;;;;;5051011;28;20426;-84
2022/11/05 14:08:41;;;;;;;2.90;1.87;;;13.50;1.00;;;;;;5042366;28;20505;-84
2022/11/05 14:11:51;;;;;;;5.30;1.93;;;13.40;1.00;;;;;;5041777;28;20810;-84
2022/11/05 14:14:28;;;;;;;5.27;2.03;;;13.20;1.00;;;;;;4976621;28;20384;-84
2022/11/05 14:17:06;;;;;;;5.77;1.80;;;13.00;1.00;;;;;;4994546;28;20424;-85
2022/11/05 14:19:35;;;;;;;4.40;1.50;;;12.90;1.00;;;;;;4994673;28;20431;-80
2022/11/05 14:22:46;;;;;;;3.10;2.40;;;12.90;1.00;;;;;;4994040;28;20427;-81
2022/11/05 14:25:17;;;;;;;5.83;2.97;;;12.90;1.00;;;;;;4994100;28;20417;-81
2022/11/05 14:27:48;;;;;;;5.53;2.13;;;12.80;1.00;;;;;;4994045;28;20451;-81
2022/11/05 14:30:38;;;;;;;11.73;3.23;;;12.90;1.00;;;;;;4993922;28;20443;-80
2022/11/05 14:33:25;;;;;;;3.87;1.50;;;13.00;1.00;;;;;;4996169;28;20451;-80
2022/11/05 14:36:28;;;;;;;2.90;1.60;;;12.80;1.00;;;;;;4979857;28;20516;-80
2022/11/05 14:39:16;;;;;;;2.40;1.80;;;12.90;1.00;;;;;;4968116;28;20470;-80
2022/11/05 14:42:03;;;;;;;2.10;1.80;;;13.00;1.00;;;;;;4967842;28;20429;-79
2022/11/05 14:45:20;;;;;;;2.50;1.80;;;12.90;1.00;;;;;;4949925;28;20430;-79
2022/11/05 14:51:30;;;;;;;4.87;1.50;;;13.00;1.00;;;;;;5013129;28;20487;-79
2022/11/05 14:54:19;;;;;;;2.30;1.30;;;12.90;1.00;;;;;;4997701;28;20416;-79
2022/11/05 14:56:56;;;;;;;5.13;1.33;;;12.90;1.00;;;;;;4996522;28;20456;-80
2022/11/05 14:59:59;;;;;;;1.90;1.40;;;12.70;1.00;;;;;;5006042;28;20464;-80
2022/11/05 15:02:36;;;;;;;4.30;1.40;;;12.40;1.00;;;;;;5011736;28;20478;-79
2022/11/05 15:05:39;;;;;;;3.13;1.27;;;12.10;1.00;;;;;;4992399;28;20472;-79
2022/11/05 15:08:51;;;;;;;2.97;1.20;;;12.00;1.00;;;;;;5022933;28;20796;-79
2022/11/05 15:11:34;;;;;;;5.77;1.30;;;11.90;1.00;;;;;;4910893;29;20443;-79
2022/11/05 15:14:39;;;;;;;4.97;1.17;;;11.90;1.00;;;;;;4895191;29;20444;-79
2022/11/05 15:17:30;;;;;;;7.90;1.10;;;11.80;1.00;;;;;;4903995;29;20455;-80
2022/11/05 15:20:18;;;;;;;3.17;1.13;;;11.80;1.00;;;;;;4896920;29;20569;-79
2022/11/05 15:22:58;;;;;;;0.80;0.80;;;11.70;1.00;;;;;;4881513;29;20429;-80
2022/11/05 15:26:04;;;;;;;6.53;1.30;;;11.80;1.00;;;;;;4901954;29;20468;-80
2022/11/05 15:28:51;;;;;;;1.50;1.30;;;11.90;1.00;;;;;;4897147;29;20439;-88
2022/11/05 15:31:52;;;;;;;2.13;1.10;;;11.80;1.00;;;;;;4890703;29;20572;-80
2022/11/05 15:34:21;;;;;;;8.47;1.37;;;11.70;1.00;;;;;;4912702;29;20416;-84
2022/11/05 15:37:16;;;;;;;3.13;1.80;;;11.70;1.00;;;;;;4916150;29;20412;-77
2022/11/05 15:39:54;;;;;;;2.30;1.40;;;11.70;1.00;;;;;;4896911;29;20453;-77
2022/11/05 15:42:25;;;;;;;3.60;1.30;;;11.70;1.00;;;;;;4911972;29;20431;-77
2022/11/05 15:44:54;;;;;;;12.30;1.63;;;11.70;1.00;;;;;;4897520;29;20418;-77
2022/11/05 15:47:30;;;;;;;2.33;1.23;;;11.70;1.00;;;;;;4918327;28;20422;-77
2022/11/05 15:50:13;;;;;;;3.43;1.20;;;11.60;1.00;;;;;;5045265;28;21079;-77
2022/11/05 15:52:53;;;;;;;3.70;2.20;;;11.60;1.00;;;;;;5045495;28;20413;-77
2022/11/05 15:55:24;;;;;;;7.87;2.50;;;11.50;1.00;;;;;;5055040;28;20916;-77
2022/11/05 15:58:05;;;;;;;5.67;2.43;;;11.40;1.00;;;;;;5044472;28;20484;-77
2022/11/05 16:00:35;;;;;;;5.87;1.70;;;11.30;1.00;;;;;;5050805;28;20493;-77
2022/11/05 16:03:26;;;;;;;2.63;1.40;;;11.20;1.00;;;;;;5038324;28;20451;-77
2022/11/05 16:05:53;;;;;;;3.87;2.07;;;11.10;1.00;;;;;;5048084;28;20435;-77
2022/11/05 16:08:21;;;;;;;3.50;2.27;;;11.00;1.00;;;;;;5047095;28;20421;-78
2022/11/05 16:11:04;;;;;;;16.53;4.00;;;10.90;1.00;;;;;;5043028;28;20775;-81
2022/11/05 16:13:40;;;;;;;9.60;1.60;;;10.90;1.00;;;;;;5053362;28;20434;-78
2022/11/05 16:16:29;;;;;;;1.77;1.20;;;10.70;1.00;;;;;;5043665;28;20453;-77
2022/11/05 16:19:32;;;;;;;2.43;1.20;;;10.60;1.00;;;;;;5034772;28;20482;-76
2022/11/05 16:22:04;;;;;;;3.13;1.57;;;10.50;1.00;;;;;;5053222;28;20479;-76
2022/11/05 16:24:30;;;;;;;1.73;1.30;;;10.40;1.00;;;;;;5044292;28;20870;-76
2022/11/05 16:27:02;;;;;;;1.70;1.40;;;10.30;1.00;;;;;;5041390;28;20410;-76
2022/11/05 16:29:39;;;;;;;2.77;1.30;;;10.20;1.00;;;;;;5053013;28;20812;-76
2022/11/05 16:32:17;;;;;;;6.80;1.60;;;10.10;1.00;;;;;;5041368;28;20442;-76
2022/11/05 16:34:48;;;;;;;4.33;1.60;;;10.00;1.00;;;;;;5039078;28;20414;-81
2022/11/05 16:37:25;;;;;;;4.57;1.60;;;9.90;1.00;;;;;;5053074;28;20456;-81
2022/11/05 16:39:54;;;;;;;1.80;1.50;;;9.80;1.00;;;;;;5049860;28;20406;-81
2022/11/05 16:42:36;;;;;;;3.07;2.00;;;9.60;1.00;;;;;;5051730;28;20414;-81
2022/11/05 16:45:06;;;;;;;3.33;1.23;;;9.50;1.00;;;;;;5043520;28;20416;-81
2022/11/05 16:47:47;;;;;;;4.07;1.90;;;9.40;1.00;;;;;;5052897;28;20425;-81
2022/11/05 16:50:24;;;;;;;4.50;2.37;;;9.40;1.00;;;;;;5046312;28;20414;-79
2022/11/05 16:53:05;;;;;;;6.87;1.73;;;9.40;1.00;;;;;;5035378;28;20422;-79
2022/11/05 16:55:43;;;;;;;2.23;1.97;;;9.70;1.00;;;;;;5035009;28;20902;-79
2022/11/05 16:58:25;;;;;;;2.90;1.87;;;9.80;1.00;;;;;;5039069;28;20496;-82
2022/11/05 17:01:20;;;;;;;2.30;1.43;;;9.90;1.00;;;;;;5046918;28;20414;-83
2022/11/05 17:04:11;;;;;;;3.07;1.73;;;9.70;1.00;;;;;;5043865;28;20497;-83
2022/11/05 17:06:53;;;;;;;12.83;1.90;;;9.60;1.00;;;;;;5038033;28;20444;-80
2022/11/05 17:09:30;;;;;;;5.17;1.83;;;9.40;1.00;;;;;;5052533;28;20517;-83
2022/11/05 17:11:59;;;;;;;2.37;2.17;;;9.30;1.00;;;;;;5042843;28;20420;-85
2022/11/05 17:14:41;;;;;;;3.97;2.17;;;9.20;1.00;;;;;;5052194;28;20516;-82
2022/11/05 17:17:11;;;;;;;3.30;2.63;;;9.10;1.00;;;;;;5037251;28;20427;-79
2022/11/05 17:19:41;;;;;;;4.83;3.63;;;9.00;1.00;;;;;;5051317;28;20999;-82
2022/11/05 17:22:40;;;;;;;5.03;2.90;;;8.90;1.00;;;;;;5046908;28;20425;-82
2022/11/05 17:25:24;;;;;;;8.23;3.97;;;8.80;1.00;;;;;;5033374;28;20973;-83
2022/11/05 17:27:53;;;;;;;6.63;3.90;;;8.70;1.00;;;;;;5050328;28;20406;-80
2022/11/05 17:30:19;;;;;;;7.50;4.10;;;8.60;1.00;;;;;;5052130;28;20446;-80